createdAt,value
2019-06-07T00:03:29.045Z,76817.75
2019-06-07T00:08:38.830Z,76815.76
2019-06-07T00:13:58.673Z,76823.74
2019-06-07T00:19:15.690Z,76825.74
2019-06-07T00:24:27.049Z,76828.73
2019-06-07T00:29:40.731Z,76833.73
2019-06-07T00:34:53.572Z,76831.73
2019-06-07T00:40:14.159Z,76839.72
2019-06-07T00:45:24.492Z,76844.70
2019-06-07T00:50:36.883Z,76849.70
2019-06-07T00:55:48.902Z,76859.69
2019-06-07T01:01:06.064Z,76862.68
2019-06-07T01:06:23.466Z,76871.67
2019-06-07T01:11:35.830Z,76873.66
2019-06-07T01:16:57.134Z,76893.63
2019-06-07T01:22:06.077Z,76892.63
2019-06-07T01:27:17.051Z,76892.63
2019-06-07T01:32:32.151Z,76891.64
2019-06-07T01:37:47.204Z,76907.61
2019-06-07T01:42:59.411Z,76915.59
2019-06-07T01:48:11.658Z,76924.59
2019-06-07T01:53:45.339Z,76933.57
2019-06-07T01:58:57.518Z,76936.56
2019-06-07T02:04:09.462Z,76931.58
2019-06-07T02:09:20.942Z,76931.58
2019-06-07T02:14:33.716Z,76936.56
2019-06-07T02:19:44.594Z,76942.55
2019-06-07T02:25:34.433Z,76939.56
2019-06-07T02:30:37.030Z,76934.57
2019-06-07T02:35:34.753Z,76936.56
2019-06-07T02:40:39.163Z,76939.56
2019-06-07T02:45:54.946Z,76936.56
2019-06-07T02:51:10.310Z,76937.56
2019-06-07T02:56:53.939Z,76935.56
2019-06-07T03:01:42.525Z,76927.58
2019-06-07T03:06:59.828Z,76920.59
2019-06-07T03:12:11.604Z,76920.59
2019-06-07T03:17:50.044Z,76919.59
2019-06-07T03:23:04.726Z,76910.61
2019-06-07T03:28:18.970Z,76911.61
2019-06-07T03:33:42.881Z,76855.69
2019-06-07T03:38:57.674Z,76877.66
2019-06-07T03:44:13.564Z,76884.65
2019-06-07T03:49:31.525Z,76888.64
2019-06-07T03:54:39.982Z,76896.63
2019-06-07T04:00:02.578Z,76882.65
2019-06-07T04:05:15.554Z,76880.66
2019-06-07T04:10:52.052Z,76884.65
2019-06-07T04:15:42.363Z,76887.64
2019-06-07T04:21:03.962Z,76891.64
2019-06-07T04:26:21.029Z,76884.65
2019-06-07T04:31:32.182Z,76851.70
2019-06-07T04:36:58.580Z,76840.72
2019-06-07T04:42:10.058Z,76813.76
2019-06-07T04:47:33.868Z,76796.78
2019-06-07T04:52:45.533Z,76777.81
2019-06-07T04:57:57.402Z,76729.89
2019-06-07T05:03:09.594Z,76737.88
2019-06-07T05:08:28.420Z,76722.91
2019-06-07T05:13:44.004Z,76682.97
2019-06-07T05:24:45.527Z,76632.05
2019-06-07T05:30:09.615Z,76606.09
2019-06-07T05:35:14.936Z,76584.13
2019-06-07T05:40:38.785Z,76539.20
2019-06-07T05:45:47.074Z,76480.30
2019-06-07T05:51:05.050Z,76484.30
2019-06-07T05:56:47.952Z,76503.27
2019-06-07T06:02:26.364Z,76474.31
2019-06-07T06:07:50.783Z,76424.39
2019-06-07T06:13:03.512Z,76415.41
2019-06-07T06:18:17.768Z,76416.41
2019-06-07T06:23:28.082Z,76372.48
2019-06-07T06:28:45.251Z,76350.52
2019-06-07T06:33:54.896Z,76302.60
2019-06-07T06:39:08.857Z,76281.64
2019-06-07T06:44:24.199Z,76288.63
2019-06-07T06:49:36.524Z,76276.65
2019-06-07T06:55:00.066Z,76273.66
2019-06-07T07:00:07.018Z,76236.72
2019-06-07T07:05:22.974Z,76232.72
2019-06-07T07:10:46.009Z,76222.74
2019-06-07T07:15:58.652Z,76194.79
2019-06-07T07:21:14.221Z,76138.89
2019-06-07T07:26:30.695Z,76118.92
2019-06-07T07:31:45.654Z,76118.92
2019-06-07T07:36:59.733Z,76057.03
2019-06-07T07:42:20.849Z,76023.09
2019-06-07T07:47:25.822Z,76007.13
2019-06-07T07:52:35.171Z,75993.14
2019-06-07T07:57:58.142Z,76023.09
2019-06-07T08:03:04.869Z,75936.25
2019-06-07T08:08:21.772Z,75841.42
2019-06-07T08:13:33.682Z,75862.38
2019-06-07T08:18:45.747Z,75931.26
2019-06-07T08:24:04.229Z,75978.17
2019-06-07T08:29:16.101Z,75923.27
2019-06-07T08:34:30.809Z,75848.41
2019-06-07T08:39:43.715Z,75781.53
2019-06-07T08:45:01.556Z,75761.56
2019-06-07T08:50:11.208Z,75748.59
2019-06-07T08:55:24.767Z,75788.52
2019-06-07T09:00:47.041Z,75797.50
2019-06-07T09:05:54.203Z,75697.69
2019-06-07T09:11:10.977Z,75645.78
2019-06-07T09:16:22.416Z,75685.70
2019-06-07T09:21:39.629Z,75605.86
2019-06-07T09:26:58.239Z,75548.97
2019-06-07T09:32:17.867Z,75567.93
2019-06-07T09:42:37.269Z,75601.87
2019-06-07T09:47:48.106Z,75563.94
2019-06-07T09:53:10.129Z,75533.00
2019-06-07T10:03:36.737Z,75516.03
2019-06-07T10:10:09.827Z,75509.05
2019-06-07T10:14:58.702Z,75470.12
2019-06-07T10:20:12.676Z,75462.13
2019-06-07T10:25:29.729Z,75457.14
2019-06-07T10:30:37.939Z,75446.16
2019-06-07T10:35:53.392Z,75405.24
2019-06-07T10:41:08.937Z,75392.27
2019-06-07T10:46:18.149Z,75358.34
2019-06-07T10:51:27.313Z,75360.33
2019-06-07T10:56:38.329Z,75341.37
2019-06-07T11:01:53.052Z,75336.38
2019-06-07T11:07:04.375Z,75301.45
2019-06-07T11:12:22.620Z,75268.51
2019-06-07T11:17:35.054Z,75184.67
2019-06-07T11:22:47.720Z,75134.78
2019-06-07T11:28:01.717Z,75121.80
2019-06-07T11:33:18.862Z,75126.80
2019-06-07T11:38:29.200Z,75123.80
2019-06-07T11:43:41.552Z,75089.87
2019-06-07T11:49:01.583Z,75058.93
2019-06-07T11:54:16.230Z,75124.80
2019-06-07T11:59:31.191Z,75003.05
2019-06-07T12:04:45.721Z,74994.06
2019-06-07T12:09:57.016Z,75045.95
2019-06-07T12:15:11.106Z,75044.95
2019-06-07T12:20:30.066Z,75076.89
2019-06-07T12:25:43.296Z,75034.98
2019-06-07T12:30:56.745Z,74920.22
2019-06-07T12:36:16.010Z,74776.52
2019-06-07T12:41:33.483Z,74762.55
2019-06-07T12:46:50.344Z,74782.50
2019-06-07T12:52:07.390Z,74831.40
2019-06-07T12:57:18.044Z,74857.34
2019-06-07T13:02:29.082Z,74851.36
2019-06-07T13:07:46.568Z,74849.36
2019-06-07T13:13:03.152Z,74863.33
2019-06-07T13:18:19.274Z,74732.61
2019-06-07T13:23:33.556Z,74640.80
2019-06-07T13:28:49.519Z,74678.72
2019-06-07T13:34:06.663Z,74709.66
2019-06-07T13:39:25.900Z,74703.66
2019-06-07T13:44:35.398Z,74708.66
2019-06-07T13:49:46.203Z,74702.67
2019-06-07T13:55:17.871Z,74657.77
2019-06-07T14:00:45.031Z,74733.60
2019-06-07T14:05:56.653Z,74765.53
2019-06-07T14:11:11.632Z,74793.48
2019-06-07T14:16:24.263Z,74822.42
2019-06-07T14:21:39.571Z,74847.36
2019-06-07T14:27:09.963Z,74867.33
2019-06-07T14:32:26.617Z,74865.33
2019-06-07T14:37:43.327Z,74848.36
2019-06-07T14:42:57.909Z,74759.55
2019-06-07T14:48:06.127Z,74686.70
2019-06-07T14:53:13.463Z,74707.66
2019-06-07T14:58:21.978Z,74712.64
2019-06-07T15:03:35.181Z,74666.75
2019-06-07T15:08:51.349Z,74550.99
2019-06-07T15:14:04.993Z,74611.86
2019-06-07T15:19:19.613Z,74715.64
2019-06-07T15:24:38.923Z,74795.47
2019-06-07T15:29:50.862Z,74784.50
2019-06-07T15:35:05.451Z,74787.48
2019-06-07T15:40:18.692Z,74713.64
2019-06-07T15:45:35.569Z,74743.58
2019-06-07T15:50:46.142Z,74763.54
2019-06-07T15:55:58.799Z,74762.55
2019-06-07T16:01:06.383Z,74808.45
2019-06-07T16:06:19.356Z,74887.28
2019-06-07T16:11:27.489Z,74978.09
2019-06-07T16:16:37.052Z,75013.02
2019-06-07T16:21:46.085Z,75044.95
2019-06-07T16:27:02.017Z,75091.86
2019-06-07T16:32:14.439Z,75189.67
2019-06-07T16:37:24.359Z,75233.58
2019-06-07T16:42:38.363Z,75315.42
2019-06-07T16:47:49.707Z,75326.40
2019-06-07T16:53:05.862Z,75352.34
2019-06-07T16:58:19.043Z,75373.30
2019-06-07T17:03:28.589Z,75427.20
2019-06-07T17:08:39.995Z,75474.11
2019-06-07T17:13:51.905Z,75487.09
2019-06-07T17:19:01.665Z,75534.99
2019-06-07T17:24:14.249Z,75588.89
2019-06-07T17:29:26.946Z,75666.74
2019-06-07T17:34:39.888Z,75738.61
2019-06-07T17:39:50.882Z,75688.70
2019-06-07T17:44:57.519Z,75667.74
2019-06-07T17:50:10.052Z,75653.77
2019-06-07T17:55:22.269Z,75643.79
2019-06-07T18:00:47.234Z,75649.78
2019-06-07T18:06:18.987Z,75639.80
2019-06-07T18:11:28.783Z,75649.78
2019-06-07T18:16:44.269Z,75645.78
2019-06-07T18:21:57.544Z,75640.80
2019-06-07T18:27:12.130Z,75652.77
2019-06-07T18:32:20.015Z,75654.77
2019-06-07T18:37:31.715Z,75687.70
2019-06-07T18:42:38.730Z,75717.65
2019-06-07T18:47:51.486Z,75740.61
2019-06-07T18:53:04.038Z,75761.56
2019-06-07T18:58:16.847Z,75769.55
2019-06-07T19:03:30.147Z,75776.54
2019-06-07T19:08:43.238Z,75773.55
2019-06-07T19:13:53.350Z,75790.52
2019-06-07T19:19:11.468Z,75811.48
2019-06-07T19:24:31.909Z,75842.42
2019-06-07T19:29:43.864Z,75852.41
2019-06-07T19:35:01.675Z,75845.41
2019-06-07T19:40:14.943Z,75829.44
2019-06-07T19:45:30.976Z,75821.45
2019-06-07T19:50:38.025Z,75818.47
2019-06-07T19:55:53.035Z,75817.47
2019-06-07T20:01:16.710Z,75774.55
2019-06-07T20:06:25.611Z,75834.44
2019-06-07T20:11:41.006Z,75877.36
2019-06-07T20:17:10.471Z,75897.32
2019-06-07T20:22:22.894Z,75916.28
2019-06-07T20:27:35.715Z,75925.27
2019-06-07T20:32:49.730Z,75935.25
2019-06-07T20:38:14.159Z,75935.25
2019-06-07T20:43:29.910Z,75924.27
2019-06-07T20:48:44.905Z,75941.23
2019-06-07T20:53:58.925Z,75953.22
2019-06-07T20:59:10.349Z,75925.27
2019-06-07T21:04:24.423Z,75951.22
2019-06-07T21:09:34.318Z,75963.20
2019-06-07T21:14:44.940Z,75973.18
2019-06-07T21:19:58.507Z,75982.16
2019-06-07T21:25:13.298Z,75991.15
2019-06-07T21:30:21.097Z,75997.14
2019-06-07T21:35:35.171Z,76000.13
2019-06-07T21:40:47.296Z,75989.16
2019-06-07T21:46:04.790Z,75989.16
2019-06-07T21:51:13.176Z,75984.16
2019-06-07T21:56:26.985Z,75985.16
2019-06-07T22:01:42.909Z,75995.14
2019-06-07T22:06:57.156Z,75993.14
2019-06-07T22:12:04.489Z,76014.11
2019-06-07T22:17:16.009Z,75991.15
2019-06-07T22:22:25.420Z,75986.16
2019-06-07T22:27:37.962Z,75989.16
2019-06-07T22:32:49.907Z,75983.16
2019-06-07T22:38:12.151Z,75954.22
2019-06-07T22:43:19.847Z,75938.25
2019-06-07T22:48:30.697Z,75939.24
2019-06-07T22:53:45.480Z,75942.23
2019-06-07T22:58:59.047Z,75947.23
2019-06-07T23:04:12.527Z,75952.22
2019-06-07T23:09:28.389Z,75957.21
2019-06-07T23:14:36.445Z,75967.19
2019-06-07T23:19:50.313Z,75971.19
2019-06-07T23:25:00.627Z,75975.17
2019-06-07T23:30:14.472Z,75985.16
2019-06-07T23:35:22.772Z,75974.18
2019-06-07T23:40:31.113Z,75979.17
2019-06-07T23:45:40.515Z,75982.16
2019-06-07T23:50:54.800Z,75980.17
2019-06-07T23:56:09.028Z,75985.16
